Tiempo atmosférico en la estación meteorológica de Molina De Aragón, Guadalajara (1056 m.)



Fecha
DESCASC
Temp. máxima en grados centígrados (hora)
DESCASC
Temp. mínima en grados centígrados (hora)
DESCASC
Temp. media en grados centígrados
DESCASC
Racha de viento máxima en m/sg (hora)
DESCASC
Velocidad máxima media en intervalos de 10 minutos(hora)
DESCASC
Precipitaciones diarias en mm
DESCASC
Precipitaciones de 00:00 a 06:00 en mm
DESCASC
Precipitaciones de 06:00 a 12:00 en mm
DESCASC
Precipitaciones de 12:00 a 18:00 en mm
DESCASC
Precipitaciones de 18:00 a 24:00 en mm
DESCASC
05-04-2020 18.3 (16:50) 4.1 (04:40) 11.2 9.44 (15:00) 3.89 (18:30) 0.4 0.2 0.2 0 0
04-04-2020 18.6 (17:50) -3 (07:40) 7.8 8.06 (17:10) 4.44 (19:20) 0 0 0 0 0
03-04-2020 15.5 (18:00) -2.3 (08:20) 6.6 4.72 (14:50) 2.5 (20:40) 0 0 0 0 0
02-04-2020 9.9 (16:00) 5.2 (00:00) 7.5 7.22 (16:00) 3.89 (15:50) 1.4 0.2 0.4 0.6 0.2
01-04-2020 12.3 (14:00) 5.2 (00:00) 8.8 5.83 (00:30) 3.61 (00:30) 14.6 6.8 0.8 3.4 3.6
31-03-2020 8.7 (17:10) -2.1 (-00:0) 3.3 10.83 (15:00) 5.83 (17:30) 5.6 3.6 1.6 0.2 0.2
30-03-2020 4.5 (02:50) -1.1 (-00:0) 1.7 8.06 (09:40) 4.17 (07:20) 4 0 0 1.4 2.6
29-03-2020 17.1 (15:40) -3.3 (-00:0) 6.9 6.67 (14:10) 3.61 (16:30) 0 0 0 0 0
28-03-2020 13.1 (16:00) -3.3 (-00:0) 4.9 6.67 (13:10) 3.61 (15:00) 0 0 0 0 0
27-03-2020 11.1 (16:10) -1.2 (-00:0) 5 7.22 (16:30) 4.44 (18:50) 0 0 0 0 0
26-03-2020 10.1 (15:50) -2.6 (-00:0) 3.8 11.11 (12:50) 5.28 (14:10) 0 0 0 0 0
25-03-2020 12.4 (16:00) -0.4 (00:00) 6 7.22 (13:00) 3.89 (11:00) 0.2 0 0.2 0 0
24-03-2020 11.1 (17:10) 1.1 (00:00) 6.1 9.44 (11:10) 5.28 (07:10) 0 0 0 0 0
23-03-2020 12.7 (16:40) 4.7 (00:00) 8.7 9.72 (14:30) 4.72 (15:10) 3.6 0 0 1.4 2.2
22-03-2020 11.8 (13:00) 4.8 (04:10) 8.3 8.61 (14:10) 4.17 (16:10) 2.6 1.8 0.8 0 0
21-03-2020 10.6 (15:00) 0.9 (00:00) 5.8 4.44 (20:30) 2.5 (20:40) 0.2 0 0 0 0.2
20-03-2020 15.7 (16:30) 3.1 (00:00) 9.4 6.67 (19:10) 3.61 (19:40) 0 0 0 0 0
19-03-2020 17.3 (15:50) 1.1 (00:00) 9.2 8.33 (17:20) 5.28 (17:40) 0 0 0 0 0
18-03-2020 16.2 (13:20) 4.9 (00:00) 10.6 6.39 (13:40) 3.33 (10:10) 0 0 0 0 0
17-03-2020 10.7 (13:10) 2.2 (00:00) 6.4 8.61 (19:30) 3.61 (13:40) 13.6 6.4 5.8 1.4 0
16-03-2020 7.3 (03:20) 0.9 (00:00) 4.1 6.67 (23:20) 3.33 (03:50) 39 7 16.6 11.8 3.6
15-03-2020 17.1 (14:00) -0.1 (00:00) 8.5 12.22 (22:10) 6.39 (18:20) 4 0 0 0.4 3.6
14-03-2020 20.4 (15:50) 2.1 (00:00) 11.2 5.28 (12:20) 2.5 (18:00) 0 0 0 0 0
13-03-2020 20.3 (14:40) 5 (23:59) 12.6 7.5 (03:50) 4.17 (03:50) 0 0 0 0 0
12-03-2020 24.3 (15:20) 1.2 (00:00) 12.7 8.06 (16:30) 4.17 (16:30) 0 0 0 0 0
11-03-2020 24.1 (15:30) -0.2 (00:00) 12 7.5 (15:10) 3.61 (15:10) 0 0 0 0 0
10-03-2020 20.9 (15:20) -1 (-00:0) 9.9 6.94 (16:10) 3.89 (16:30) 0 0 0 0 0
09-03-2020 13.6 (16:40) 1.4 (00:00) 7.5 10.28 (15:10) 4.72 (13:20) 0 0 0 0 0

Gráficas

Temp. máximas Temp. mínimas Temp. medias Precipitaciones Rachas de viento máximas Velocidades máximas media en intervalos de 10 minutos

Datos horarios

Fecha y hora oficial Temperatura (ºC) Velocidad del viento (km/h) Dirección del viento Racha (km/h) Dirección de racha Precipitación (mm) Presión (hPa) Tendencia (hPa) Humedad (%)
2020-04-07 23:00:00 11.7 4 Sudoeste 13 Sudoeste 0 903.5 1.6 83
2020-04-07 22:00:00 12.6 3 Oeste 9 Oeste 0 903.2 1.7 82
2020-04-07 21:00:00 13.2 2 Sudoeste 19 Sudoeste 0 902.4 1.2 79
2020-04-07 20:00:00 14.7 7 Sudoeste 19 Sudoeste 0 901.9 0.7 71
2020-04-07 19:00:00 15.5 7 Oeste 21 Oeste 0.2 901.5 -0.2 72
2020-04-07 18:00:00 17.3 7 Sudoeste 19 Oeste 0 901.2 -0.9 57
2020-04-07 17:00:00 17 9 Sudoeste 23 Oeste 0 901.2 -1.2 62
2020-04-07 16:00:00 15.4 7 Oeste 25 Oeste 0.8 901.7 -1 75
2020-04-07 15:00:00 17.6 10 Sudoeste 22 Oeste 0 902.1 -0.8 61
2020-04-07 14:00:00 15.9 12 Oeste 26 Oeste 0 902.4 -0.6 64
2020-04-07 13:00:00 13.2 8 Oeste 20 Sudoeste 0 902.7 0.1 81
2020-04-07 12:00:00 13.8 3 Sudoeste 6 Oeste 0 902.9 0.6 79
2020-04-07 11:00:00 11.7 0 Calma 6 Este 0 903 1 85
2020-04-07 10:00:00 10.6 0 Calma 5 Sudeste 0 902.6 0.6 91
2020-04-07 09:00:00 9.9 0 Calma 4 Sudeste 0 902.3 0.7 94
2020-04-07 08:00:00 9.7 2 Noroeste 6 Oeste 1.8 902 0.5 94
2020-04-07 07:00:00 10 4 Oeste 13 Oeste 2.4 902 0.3 94
2020-04-07 06:00:00 10.1 0 Calma 4 Este 0.2 901.6 -0.3 94
2020-04-07 05:00:00 10.2 2 Este 5 Este 0 901.5 -0.6 94
2020-04-07 04:00:00 10.5 3 Este 5 Este 0.2 901.7 -0.4 93
2020-04-07 03:00:00 10.5 0 Calma 4 Sudeste 0.2 901.9 -0.2 92
2020-04-07 02:00:00 10.8 0 Calma 4 Sudeste 0 902.1 0.2 89
2020-04-07 01:00:00 11.2 2 Sudeste 6 Este 0 902.1 0.5 85
2020-04-07 00:00:00 11.6 2 Sur 5 Este 0 902.1 1 83
2020-04-06 23:00:00 12.1 3 Sudoeste 6 Sudoeste 0 901.9 1.3 79
2020-04-06 22:00:00 12.6 2 Sudoeste 12 Sur 0 901.6 1.5 76
2020-04-06 21:00:00 13.4 5 Oeste 13 Oeste 0 901.1 0.8 69
2020-04-06 20:00:00 14.2 6 Sudoeste 17 Sudoeste 0 900.6 0.2 65
2020-04-06 19:00:00 14.6 6 Sudoeste 16 Sudoeste 0 900.1 -0.5 69
2020-04-06 18:00:00 14.7 8 Sudoeste 23 Sudoeste 0 900.3 -0.2 70
2020-04-06 17:00:00 14.6 9 Sudoeste 25 Sudoeste 0 900.4 0 75
2020-04-06 16:00:00 15.2 11 Sudoeste 24 Sur 0 900.6 0.4 69
2020-04-06 15:00:00 14.6 11 Sudoeste 26 Sur 0 900.5 0.5 70
2020-04-06 14:00:00 14.3 10 Sudoeste 27 Sur 0 900.4 0.6 71
2020-04-06 13:00:00 14.9 11 Sudoeste 24 Sur 0 900.2 0.8 66
2020-04-06 12:00:00 14.7 11 Sur 22 Sudoeste 0 900 1 66
2020-04-06 11:00:00 13.4 7 Sudoeste 23 Sur 0 899.8 1.4 68
2020-04-06 10:00:00 12.5 9 Sudoeste 22 Sur 0 899.4 1.7 75
2020-04-06 09:00:00 9.8 2 Sudeste 4 Oeste 0 899 1.4 88
2020-04-06 08:00:00 9.4 0 Calma 6 Oeste 0 898.4 0.9 87
2020-04-06 07:00:00 9.7 2 Sur 11 Sudoeste 0 897.7 0.1 85
2020-04-06 06:00:00 9.3 0 Calma 8 Este 0 897.6 -0.2 87
2020-04-06 05:00:00 9 2 Nordeste 6 Nordeste 0 897.5 -0.4 87
2020-04-06 04:00:00 9.1 0 Calma 5 Sudeste 0 897.6 0.1 84
2020-04-06 03:00:00 8.9 2 Este 5 Sudeste 0 897.8 0.4 84
2020-04-06 02:00:00 9.4 2 Sudeste 8 Este 0 897.9 0.8 79
2020-04-06 01:00:00 9.3 3 Nordeste 8 Sudeste 0 897.5 0.7 78
2020-04-06 00:00:00 8.3 3 Nordeste 8 Este 0 897.4 1.2 81
2020-04-05 23:00:00 8.4 5 Este 8 Este 0 897.1 1.4 78
2020-04-05 22:00:00 10.6 0 Calma 8 Oeste 0 896.8 1.2 68
2020-04-05 21:00:00 13 5 Oeste 18 Oeste 0 896.2 0.6 57
2020-04-05 20:00:00 15.1 9 Sudoeste 22 Sudoeste 0 895.7 -0.1 48
2020-04-05 19:00:00 16.5 13 Oeste 25 Oeste 0 895.6 -0.6 45
2020-04-05 18:00:00 17.7 8 Sudoeste 27 Sudoeste 0 895.6 -1.1 43
2020-04-05 17:00:00 17.5 8 Sudoeste 26 Sur 0 895.8 -1.2 43
2020-04-05 16:00:00 17.9 10 Sudoeste 25 Sur 0 896.2 -1 43
2020-04-05 15:00:00 16.9 13 Sudoeste 34 Sudoeste 0 896.7 -0.6 45
2020-04-05 14:00:00 15.8 12 Oeste 24 Oeste 0 897 -0.4 51
2020-04-05 13:00:00 15.8 6 Sudoeste 14 Noroeste 0 897.2 -0.1 54
2020-04-05 12:00:00 12.5 3 Oeste 9 Noroeste 0 897.3 -0.1 67
2020-04-05 11:00:00 10 2 Sur 4 Sur 0 897.4 0.3 75
2020-04-05 10:00:00 8 0 Calma 4 Sur 0 897.3 0.8 85
2020-04-05 09:00:00 6.6 2 Sudeste 6 Norte 0 897.4 1 93
2020-04-05 08:00:00 5.7 0 Calma 4 Nordeste 0.2 897.1 0.6 94
2020-04-05 07:00:00 5.2 2 Este 5 Sur 0 896.5 0.1 94
2020-04-05 06:00:00 4.5 2 Sudeste 5 Este 0.2 896.4 -0.2 93
2020-04-05 05:00:00 4.1 3 Sudeste 7 Norte 0 896.5 -0.3 90
2020-04-05 04:00:00 4.6 2 Sudeste 6 Sudeste 0 896.4 -0.6 88
2020-04-05 03:00:00 5.3 3 Este 9 Este 0 896.6 -0.3 86
2020-04-05 02:00:00 6.1 3 Este 5 Este 0 896.8 0.2 83
2020-04-05 01:00:00 6.6 6 Este 8 Este 0 897 0.7 80
2020-04-05 00:00:00 7.5 3 Nordeste 10 Este 0 896.9 1.4 73
2020-04-04 23:00:00 9.5 11 Este 17 Este 0 896.6 1.9 64
2020-04-04 22:00:00 10.4 8 Sudeste 16 Este 0 896.3 2.2 59
2020-04-04 21:00:00 11.8 4 Sudeste 23 Sur 0 895.5 1.7 57
2020-04-04 20:00:00 14.1 8 Sudeste 24 Sur 0 894.7 0.8 47
2020-04-04 19:00:00 17 11 Sudeste 26 Este 0 894.1 -0.2 36
2020-04-04 18:00:00 18.1 14 Sudeste 29 Sudeste 0 893.8 -1.1 31
2020-04-04 17:00:00 17.9 15 Sudeste 27 Sudeste 0 893.9 -1.6 33
2020-04-04 16:00:00 18.2 15 Sudeste 28 Sudeste 0 894.3 -1.8 23
2020-04-04 15:00:00 17.6 3 Nordeste 20 Este 0 894.9 -1.7 35
2020-04-04 14:00:00 17 8 Este 21 Este 0 895.5 -1.4 34
2020-04-04 13:00:00 15.1 9 Este 17 Este 0 896.1 -0.9 40
2020-04-04 12:00:00 11.4 3 Este 6 Sudoeste 0 896.6 -0.3 54
2020-04-04 11:00:00 6.8 3 Sudoeste 6 Sudeste 0 896.9 0.5 74
2020-04-04 10:00:00 2.7 3 Sudeste 5 Sur 0 897 1 84
2020-04-04 09:00:00 -1.5 2 Oeste 4 Sudeste 0 896.9 0.7 99
2020-04-04 08:00:00 -2.7 3 Este 8 Nordeste 0 896.4 0 96
2020-04-04 07:00:00 -2.7 0 Calma 7 Sudeste 0 896 -0.4 94
2020-04-04 06:00:00 -2.3 2 Este 4 Sudeste 0 896.2 -0.5 94
2020-04-04 05:00:00 -1.8 2 Sudeste 4 Sudeste 0 896.4 -0.2 94
2020-04-04 04:00:00 -1.3 2 Este 4 Sudeste 0 896.4 -0.3 93
2020-04-04 03:00:00 -0.8 0 Calma 4 Este 0 896.7 0.1 91
2020-04-04 02:00:00 0 0 Calma 4 Sudeste 0 896.6 0.4 89
2020-04-04 01:00:00 1.2 2 Nordeste 5 Nordeste 0 896.7 0.9 87
2020-04-04 00:00:00 2.4 0 Calma 5 Este 0 896.6 1.6 83
2020-04-03 23:00:00 4.1 2 Este 6 Sudeste 0 896.2 1.5 75
2020-04-03 22:00:00 6 3 Nordeste 7 Norte 0 895.8 1.4 62
2020-04-03 21:00:00 8.7 8 Norte 15 Nordeste 0 895 0.7 53
2020-04-03 20:00:00 12.1 4 Nordeste 16 Nordeste 0 894.7 0.3 39
2020-04-03 19:00:00 14.7 5 Nordeste 12 Este 0 894.4 -0.3 31
2020-04-03 18:00:00 15.5 5 Norte 14 Este 0 894.3 -0.8 29
2020-04-03 17:00:00 14.9 5 Sur 11 Este 0 894.4 -1.2 29
2020-04-03 16:00:00 14.3 6 Sur 17 Sur 0 894.7 -1.3 34
2020-04-03 15:00:00 12.9 5 Sudoeste 17 Este 0 895.1 -1.1 39
2020-04-03 14:00:00 11.3 4 Oeste 10 Noroeste 0 895.6 -0.3 43
2020-04-03 13:00:00 9.9 6 Sur 13 Sudoeste 0 896 0.3 52
2020-04-03 12:00:00 7.9 7 Sur 11 Sur 0 896.2 0.7 56
2020-04-03 11:00:00 5.4 4 Sudoeste 8 Sur 0 895.9 1 63
2020-04-03 10:00:00 2.7 3 Este 6 Este 0 895.7 1.2 85
2020-04-03 09:00:00 -1 3 Este 7 Sudeste 0 895.5 1.4 100
2020-04-03 08:00:00 -2.2 0 Calma 4 Sudeste 0 894.9 0.8 95
2020-04-03 07:00:00 -1.5 2 Sudeste 7 Sudoeste 0 894.5 0.4 96
2020-04-03 06:00:00 -1.1 0 Calma 5 Este 0 894.1 -0.1 95
2020-04-03 05:00:00 -0.2 3 Este 8 Sudeste 0 894.1 -0.1 93
2020-04-03 04:00:00 0.9 3 Sudeste 7 Norte 0 894.1 -0.1 92
2020-04-03 03:00:00 1.9 3 Este 5 Este 0 894.2 -0.2 88
2020-04-03 02:00:00 3.4 2 Nordeste 9 Sudoeste 0 894.2 0.2 85
2020-04-03 01:00:00 5.2 5 Norte 15 Norte 0 894.2 0.8 81
2020-04-03 00:00:00 6 5 Norte 13 Norte 0 894.4 1.9 80
2020-04-02 23:00:00 6.5 2 Noroeste 11 Norte 0 894 2 80
2020-04-02 22:00:00 7.1 2 Noroeste 5 Noroeste 0 893.4 1.6 90
2020-04-02 21:00:00 7.1 0 Calma 7 Noroeste 0 892.5 1.1 89
2020-04-02 20:00:00 7.3 4 Norte 12 Norte 0 892 0.8 89
2020-04-02 19:00:00 7.4 5 Nordeste 14 Norte 0.2 891.8 0.5 90
2020-04-02 18:00:00 7.9 3 Norte 20 Nordeste 0.6 891.4 0 89
2020-04-02 17:00:00 9.2 10 Nordeste 23 Norte 0 891.2 -0.1 79
2020-04-02 16:00:00 9.7 10 Nordeste 26 Norte 0 891.3 -0.2 77
2020-04-02 15:00:00 8.7 9 Norte 21 Norte 0 891.4 -0.2 82
2020-04-02 14:00:00 9.1 10 Norte 22 Norte 0 891.3 0.1 79
2020-04-02 13:00:00 9 4 Nordeste 18 Norte 0 891.5 0.8 78
2020-04-02 12:00:00 8.4 5 Norte 13 Nordeste 0 891.6 1.1 83
2020-04-02 11:00:00 6.9 5 Nordeste 19 Nordeste 0 891.2 1.1 87
2020-04-02 10:00:00 6.2 9 Norte 14 Norte 0 890.7 0.9 93
2020-04-02 09:00:00 5.3 3 Nordeste 11 Nordeste 0.2 890.5 0.7 97
2020-04-02 08:00:00 5.3 5 Nordeste 10 Norte 0.2 890.1 0.2 96
2020-04-02 07:00:00 5.5 3 Nordeste 9 Nordeste 0 889.8 -0.5 96
2020-04-02 06:00:00 5.6 3 Nordeste 8 Nordeste 0 889.8 -1 96
2020-04-02 05:00:00 5.7 4 Nordeste 10 Nordeste 0 889.9 -1.2 96
2020-04-02 04:00:00 5.8 3 Nordeste 10 Norte 0 890.3 -1 96
2020-04-02 03:00:00 5.9 0 Calma 6 Norte 0 890.8 -0.7 96
2020-04-02 02:00:00 5.9 0 Calma 5 Norte 0.2 891.1 -0.3 95
2020-04-02 01:00:00 5.9 3 Norte 7 Este 0 891.3 0 94
2020-04-02 00:00:00 6 3 Nordeste 6 Nordeste 0 891.5 0.7 95
2020-04-01 23:00:00 6 3 Sudoeste 9 Nordeste 0 891.4 0.7 94
2020-04-01 22:00:00 6.2 2 Nordeste 7 Noroeste 0.2 891.3 0.9 91
2020-04-01 21:00:00 6.5 3 Noroeste 12 Nordeste 0.2 890.8 0.9 91
2020-04-01 20:00:00 6.7 6 Norte 17 Oeste 1.8 890.7 0.6 92
2020-04-01 19:00:00 8.3 5 Norte 11 Nordeste 1.4 890.4 0.8 88
2020-04-01 18:00:00 9.3 5 Nordeste 17 Este 0 889.9 -0.3 85
2020-04-01 17:00:00 8 3 Sudoeste 19 Oeste 2.8 890.1 -0.5 88
2020-04-01 16:00:00 11.4 10 Norte 21 Norte 0.4 889.6 -1.5 74
2020-04-01 15:00:00 10.9 3 Sudeste 17 Este 0.2 890.2 -1.3 75
2020-04-01 14:00:00 12.3 5 Nordeste 16 Nordeste 0 890.6 -0.9 66
2020-04-01 13:00:00 8.8 3 Oeste 10 Oeste 0 891.1 0 78
2020-04-01 12:00:00 8.1 5 Oeste 10 Oeste 0 891.5 0.6 86
2020-04-01 11:00:00 6.8 3 Sudoeste 6 Sudoeste 0 891.5 1.2 92
2020-04-01 10:00:00 5.9 0 Calma 8 Este 0 891.1 1 94
2020-04-01 09:00:00 5.3 0 Calma 5 Sur 0.2 890.9 0.6 95
2020-04-01 08:00:00 5.3 2 Sudoeste 14 Nordeste 0 890.3 -0.1 93
2020-04-01 07:00:00 5.5 8 Este 17 Este 0.6 890.1 -0.3 92
2020-04-01 06:00:00 5.5 4 Nordeste 8 Norte 0.6 890.3 -0.3 96
2020-04-01 05:00:00 5.7 5 Este 18 Sudeste 4 890.4 -0.1 93
2020-04-01 04:00:00 6.1 0 Calma 15 Este 2 890.4 -0.1 94
2020-04-01 03:00:00 6.6 9 Este 17 Este 0.2 890.6 -0.2 91
2020-04-01 02:00:00 6.7 9 Este 18 Este 0 890.5 -0.3 87
2020-04-01 01:00:00 6.5 9 Este 21 Este 0 890.5 0.1 88
2020-04-01 00:00:00 6.5 5 Este 13 Este 0 890.8 1.1 90
2020-03-31 23:00:00 7 6 Este 14 Este 0.2 890.8 1.6 88
2020-03-31 22:00:00 6.9 8 Este 16 Este 0 890.4 1.6 87
2020-03-31 21:00:00 7 9 Este 18 Este 0 889.7 1 85
2020-03-31 20:00:00 7.7 12 Este 27 Este 0 889.2 1 82
2020-03-31 19:00:00 8.1 12 Este 26 Este 0 888.8 0.3 81
2020-03-31 18:00:00 8.2 14 Este 36 Este 0 888.7 0.4 77
2020-03-31 17:00:00 8.4 18 Este 36 Sudeste 0 888.2 -0.2 78
2020-03-31 16:00:00 7 17 Este 37 Este 0 888.5 0.1 82
2020-03-31 15:00:00 6.9 19 Este 39 Este 0 888.3 -0.1 78
2020-03-31 14:00:00 4.8 17 Este 29 Este 0 888.4 0 84
2020-03-31 13:00:00 3.8 15 Nordeste 30 Nordeste 0.2 888.4 0.3 87
2020-03-31 12:00:00 1.9 10 Nordeste 24 Nordeste 0 888.4 0.2 89
2020-03-31 11:00:00 1 13 Nordeste 23 Norte 0 888.4 0.5 90
2020-03-31 10:00:00 -0.1 11 Nordeste 23 Nordeste 1.2 888.1 0.2 92
2020-03-31 09:00:00 -1 8 Nordeste 16 Nordeste 0.4 888.2 0.1 94
2020-03-31 08:00:00 -1.5 5 Nordeste 12 Nordeste 0 887.9 -0.5 94
2020-03-31 07:00:00 -1.8 5 Nordeste 16 Nordeste 0 887.9 -1.3 92
2020-03-31 06:00:00 -1.9 8 Nordeste 20 Este 0 888.1 -1.9 92
2020-03-31 05:00:00 -2.1 10 Nordeste 19 Este 0 888.4 -1.9 91
2020-03-31 04:00:00 -2 9 Este 15 Este 0.6 889.2 -1.8 91
2020-03-31 03:00:00 -1.9 6 Este 17 Este 1 890 -1.2 92
2020-03-31 02:00:00 -1.7 11 Este 19 Este 1.2 890.3 -1 92
2020-03-31 01:00:00 -1.5 9 Este 21 Este 0.8 891 -0.7 94
2020-03-31 00:00:00 -1.1 12 Este 22 Este 0 891.2 -0.5 89
2020-03-30 23:00:00 -0.8 9 Este 17 Nordeste 0.2 891.3 -0.3 91
2020-03-30 22:00:00 -0.8 7 Este 15 Este 0.6 891.7 0 93
2020-03-30 21:00:00 -0.8 11 Este 19 Nordeste 0.2 891.7 -0.1 92
2020-03-30 20:00:00 -0.4 8 Este 18 Este 0.4 891.6 -0.4 91
2020-03-30 19:00:00 0 4 Nordeste 13 Este 1.2 891.7 -0.9 92
2020-03-30 18:00:00 0.2 5 Nordeste 16 Nordeste 0.6 891.8 -1 91
2020-03-30 17:00:00 0.3 8 Nordeste 19 Este 0.8 892 -1.1 87
2020-03-30 16:00:00 1 11 Norte 20 Norte 0 892.6 -1 83
2020-03-30 15:00:00 3 10 Nordeste 26 Norte 0 892.8 -1.3 67
2020-03-30 14:00:00 3.2 9 Nordeste 22 Nordeste 0 893.1 -0.8 68
2020-03-30 13:00:00 2.3 10 Nordeste 26 Norte 0 893.6 0.1 71
2020-03-30 12:00:00 1.2 9 Norte 27 Norte 0 894.1 0.9 74
2020-03-30 11:00:00 1.6 12 Norte 27 Norte 0 893.9 1 70
2020-03-30 10:00:00 1.3 10 Norte 29 Norte 0 893.5 0.7 68
2020-03-30 09:00:00 1.3 13 Norte 26 Norte 0 893.2 0.3 75
2020-03-30 08:00:00 1.8 11 Norte 27 Norte 0 892.9 -0.4 79
2020-03-30 07:00:00 2.5 13 Norte 24 Norte 0 892.8 -0.9 82
2020-03-30 06:00:00 3.3 12 Norte 21 Norte 0 892.9 -1.3 80
2020-03-30 05:00:00 3.9 6 Norte 15 Noroeste 0 893.3 -1.3 82
2020-03-30 04:00:00 4.1 5 Noroeste 14 Noroeste 0 893.7 -1.3 78
2020-03-30 03:00:00 4.4 2 Norte 13 Norte 0 894.2 -0.8 80
2020-03-30 02:00:00 3.9 4 Norte 8 Norte 0 894.6 -0.6 83
2020-03-30 01:00:00 3.1 3 Este 8 Sudeste 0 895 -0.2 84
2020-03-30 00:00:00 4.4 0 Calma 6 Sudeste 0 895 0.4 78
2020-03-29 23:00:00 5.7 2 Nordeste 7 Norte 0 895.2 1.4 74
2020-03-29 22:00:00 7.4 3 Norte 11 Norte 0 895.2 1.8 66
2020-03-29 21:00:00 9.9 4 Nordeste 17 Norte 0 894.6 1 53
2020-03-29 20:00:00 12.8 7 Norte 21 Nordeste 0 893.8 -0.2 42
2020-03-29 19:00:00 15.3 9 Norte 17 Norte 0 893.4 -1 35
2020-03-29 18:00:00 15.6 6 Norte 24 Norte 0 893.6 -1.4 31
2020-03-29 17:00:00 15.6 7 Noroeste 24 Noroeste 0 894 -1.6 33
2020-03-29 16:00:00 16.1 10 Noroeste 22 Oeste 0 894.4 -1.7 36
2020-03-29 15:00:00 16.3 10 Oeste 24 Oeste 0 895 -1.8 37
2020-03-29 14:00:00 15.9 10 Oeste 22 Noroeste 0 895.6 -1.7 40
2020-03-29 13:00:00 14.6 7 Sudoeste 16 Sudoeste 0 896.1 -1.5 46
2020-03-29 12:00:00 11 3 Sudoeste 7 Noroeste 0 896.8 -0.8 60
2020-03-29 11:00:00 5.3 3 Sudoeste 5 Sudoeste 0 897.3 -0.1 76
2020-03-29 10:00:00 1.6 2 Sur 4 Sudoeste 0 897.6 0.3 88
2020-03-29 09:00:00 -2.4 0 Calma 3 Este 0 897.6 0.3 96
2020-03-29 08:00:00 -3.2 0 Calma 5 Sudeste 0 897.4 0 93
2020-03-29 07:00:00 -2.9 0 Calma 4 Sudeste 0 897.3 -0.4 92
2020-03-29 06:00:00 -2.2 2 Sudeste 5 Sudeste 0 897.3 -0.7 94
2020-03-29 05:00:00 -1.8 2 Este 6 Sudeste 0 897.4 -0.7 92
2020-03-29 03:00:00 -0.7 3 Este 5 Sudeste 0 898 0 92
2020-03-29 01:00:00 -0.1 2 Este 5 Este 0 898.1 0.2 90
2020-03-29 00:00:00 0.8 2 Este 5 Este 0 898.2 0.7 87
2020-03-28 23:00:00 1.9 0 Calma 5 Sudeste 0 898 1.2 83
2020-03-28 22:00:00 3.3 2 Este 4 Sudeste 0 897.9 1.5 80
2020-03-28 21:00:00 5.1 2 Nordeste 7 Norte 0 897.5 1.5 73
2020-03-28 20:00:00 7.7 3 Sudeste 10 Norte 0 896.8 1.1 64
2020-03-28 19:00:00 10.7 2 Nordeste 12 Nordeste 0 896.4 0.7 55
2020-03-28 18:00:00 11.2 5 Nordeste 12 Este 0 896 0.1 45
2020-03-28 17:00:00 11.6 7 Nordeste 14 Este 0 895.7 -0.5 44
2020-03-28 16:00:00 12.7 8 Este 21 Sudeste 0 895.7 -0.6 40
2020-03-28 15:00:00 11.6 13 Este 22 Nordeste 0 895.9 -0.7 43
2020-03-28 14:00:00 12.6 12 Este 24 Sudeste 0 896.2 -0.3 42
2020-03-28 13:00:00 12.4 9 Este 21 Sudeste 0 896.3 -0.2 42
2020-03-28 12:00:00 11.3 8 Este 20 Sudeste 0 896.6 0.4 44
2020-03-28 11:00:00 8.8 5 Sur 12 Sur 0 896.5 0.5 59
2020-03-28 10:00:00 5.3 3 Oeste 8 Oeste 0 896.5 0.8 74
2020-03-28 09:00:00 1.9 3 Este 6 Sudeste 0 896.2 1 82
2020-03-28 08:00:00 -1.4 0 Calma 5 Sur 0 896 1 93
2020-03-28 07:00:00 -2.1 3 Sur 5 Sur 0 895.7 0.8 94
2020-03-28 06:00:00 -2.5 3 Sudoeste 4 Sudoeste 0 895.2 0.3 95
2020-03-28 05:00:00 -3.1 0 Calma 5 Sudeste 0 895 0.2 94
2020-03-28 04:00:00 -3 0 Calma 6 Sudeste 0 894.9 0.4 92
2020-03-28 03:00:00 -2.7 2 Este 3 Sudeste 0 894.9 0.6 91
2020-03-28 02:00:00 -1.9 0 Calma 5 Sudeste 0 894.8 0.7 89
2020-03-28 01:00:00 -1 2 Nordeste 6 Sudeste 0 894.5 0.9 87
2020-03-28 00:00:00 0.4 2 Este 6 Norte 0 894.3 1.3 85
2020-03-27 23:00:00 1.4 2 Sur 6 Noroeste 0 894.1 1.9 80
2020-03-27 22:00:00 2.5 2 Nordeste 10 Nordeste 0 893.6 1.9 75
2020-03-27 21:00:00 3.2 4 Nordeste 7 Nordeste 0 893 1.8 74
2020-03-27 20:00:00 5.2 3 Nordeste 18 Este 0 892.2 1.4 64
2020-03-27 19:00:00 7 13 Este 25 Nordeste 0 891.7 1 51
2020-03-27 18:00:00 8.6 9 Nordeste 23 Este 0 891.2 0.2 48
2020-03-27 17:00:00 9.3 10 Nordeste 26 Este 0 890.8 -0.5 46
2020-03-27 16:00:00 10.9 8 Sudeste 23 Sudeste 0 890.7 -0.8 34
2020-03-27 15:00:00 9.8 12 Este 24 Este 0 891 -0.7 36
2020-03-27 14:00:00 8.6 9 Sudeste 22 Este 0 891.3 -0.7 48
2020-03-27 13:00:00 7.4 9 Este 26 Este 0 891.5 0.2 52
2020-03-27 12:00:00 5.7 10 Este 23 Este 0 891.7 0.5 58
2020-03-27 11:00:00 3.6 10 Nordeste 26 Este 0 892 1.1 76
2020-03-27 10:00:00 2.9 10 Este 22 Este 0 891.3 0.6 68
2020-03-27 09:00:00 0.9 4 Sudeste 10 Sur 0 891.2 0.7 82
2020-03-27 08:00:00 -0.6 3 Este 9 Este 0 890.9 0.8 86
2020-03-27 07:00:00 -1.1 6 Nordeste 12 Este 0 890.7 1 90
2020-03-27 06:00:00 -0.8 3 Este 6 Norte 0 890.5 0.7 84
2020-03-27 05:00:00 -0.9 2 Norte 5 Este 0 890.1 0 81
2020-03-27 04:00:00 -1 3 Sudeste 12 Este 0 889.7 -0.4 79
2020-03-27 03:00:00 -0.8 4 Este 11 Este 0 889.8 -0.6 76
2020-03-27 02:00:00 -1 3 Nordeste 12 Este 0 890.1 -0.2 78
2020-03-27 01:00:00 -1.1 7 Este 14 Sudeste 0 890.1 0.2 75
2020-03-27 00:00:00 -1.1 3 Sudeste 12 Este 0 890.4 0.8 76
2020-03-26 23:00:00 -0.8 0 Calma 6 Este 0 890.3 1.3 78
2020-03-26 22:00:00 0.1 0 Calma 9 Este 0 889.9 1.4 74
2020-03-26 21:00:00 1.3 4 Nordeste 9 Nordeste 0 889.6 1.6 69
2020-03-26 20:00:00 3.6 6 Norte 14 Noroeste 0 889 1.4 60
2020-03-26 19:00:00 6.3 7 Norte 21 Norte 0 888.5 1 44
2020-03-26 18:00:00 7.8 12 Norte 27 Noroeste 0 888 0.4 36
2020-03-26 17:00:00 9.3 13 Noroeste 34 Oeste 0 887.6 -0.8 41
2020-03-26 16:00:00 9.8 13 Noroeste 34 Oeste 0 887.5 -1.2 41
2020-03-26 15:00:00 8.4 14 Norte 34 Norte 0 887.6 -1 44
2020-03-26 14:00:00 6.9 12 Norte 33 Noroeste 0 888.4 -0.4 52
2020-03-26 13:00:00 6.1 17 Noroeste 40 Oeste 0 888.7 -0.1 53
2020-03-26 12:00:00 6.3 14 Norte 35 Norte 0 888.6 -0.2 56
2020-03-26 11:00:00 6.8 16 Norte 37 Noroeste 0 888.8 -0.1 55
2020-03-26 10:00:00 4.6 14 Noroeste 31 Noroeste 0 888.8 -0.1 66
2020-03-26 09:00:00 2.4 4 Noroeste 19 Oeste 0 888.8 -0.4 80
2020-03-26 08:00:00 -1.9 3 Este 10 Este 0 888.9 -0.3 93
2020-03-26 07:00:00 -2.4 2 Este 9 Sur 0 888.9 -0.7 92
2020-03-26 06:00:00 -2.3 2 Nordeste 5 Sur 0 889.2 -0.6 94
2020-03-26 05:00:00 -1.4 0 Calma 5 Este 0 889.2 -1.2 96
2020-03-26 04:00:00 -1.1 0 Calma 7 Sudeste 0 889.6 -1.3 96
2020-03-26 03:00:00 -0.9 2 Este 7 Este 0 889.8 -1.5 93
2020-03-26 02:00:00 -0.2 0 Calma 6 Sudeste 0 890.4 -1.1 92
2020-03-26 01:00:00 0.7 2 Este 4 Sur 0 890.9 -0.9 92
2020-03-26 00:00:00 1.5 0 Calma 7 Sudeste 0 891.3 -0.6 87
2020-03-25 23:00:00 2.3 2 Este 6 Sudeste 0 891.5 -0.3 87
2020-03-25 22:00:00 3.8 3 Sudeste 5 Este 0 891.8 -0.1 82
2020-03-25 21:00:00 5.1 3 Este 8 Sudeste 0 891.9 0.2 78
2020-03-25 20:00:00 6.9 0 Calma 9 Este 0 891.8 0 68
2020-03-25 19:00:00 8.8 4 Norte 19 Nordeste 0 891.9 -0.1 61
2020-03-25 18:00:00 10.6 10 Nordeste 22 Norte 0 891.7 -0.7 58
2020-03-25 17:00:00 11.7 8 Nordeste 22 Este 0 891.8 -1.1 51
2020-03-25 16:00:00 12.1 10 Norte 23 Norte 0 892 -1.3 49
2020-03-25 15:00:00 11.8 9 Norte 24 Norte 0 892.4 -1.2 46
2020-03-25 14:00:00 10.9 10 Norte 23 Norte 0 892.9 -1 60
2020-03-25 13:00:00 10 11 Norte 26 Norte 0 893.3 -1.1 62
2020-03-25 12:00:00 9.2 6 Oeste 24 Oeste 0.2 893.6 -0.6 71
2020-03-25 11:00:00 7.6 14 Oeste 23 Oeste 0 893.9 -0.2 79
2020-03-25 10:00:00 6.2 9 Oeste 19 Sudoeste 0 894.4 0.5 84
2020-03-25 09:00:00 5.2 9 Oeste 17 Oeste 0 894.2 0.1 89
2020-03-25 08:00:00 3.9 5 Oeste 12 Oeste 0 894.1 -0.2 95
2020-03-25 07:00:00 3.1 5 Oeste 15 Oeste 0 893.9 -0.6 94
2020-03-25 06:00:00 2 3 Noroeste 8 Noroeste 0 894.1 -1.1 95
2020-03-25 05:00:00 1.6 3 Sudoeste 9 Noroeste 0 894.3 -1.1 96
2020-03-25 04:00:00 0.6 3 Noroeste 10 Sudoeste 0 894.5 -0.8 98
2020-03-25 03:00:00 -0.3 2 Sudeste 8 Este 0 895.2 -0.2 96
2020-03-25 02:00:00 -0.1 0 Calma 10 Nordeste 0 895.4 -0.3 95
2020-03-25 01:00:00 0.5 0 Calma 7 Este 0 895.3 -0.4 95
2020-03-25 00:00:00 1.1 3 Norte 6 Nordeste 0 895.4 -0.4 94
2020-03-24 23:00:00 2.1 2 Nordeste 5 Nordeste 0 895.7 0.2 91
2020-03-24 22:00:00 3.6 2 Nordeste 7 Este 0 895.7 0.5 87
2020-03-24 21:00:00 5.4 5 Este 10 Este 0 895.8 0.9 84
2020-03-24 20:00:00 6.9 3 Nordeste 17 Este 0 895.5 0.8 78
2020-03-24 19:00:00 8.2 12 Este 20 Este 0 895.2 0.3 69
2020-03-24 18:00:00 9.3 8 Nordeste 22 Nordeste 0 894.9 -0.3 74
2020-03-24 17:00:00 10.7 9 Nordeste 24 Este 0 894.7 -1.1 71
2020-03-24 16:00:00 10.2 13 Nordeste 27 Este 0 894.9 -1.1 72
2020-03-24 15:00:00 10.1 9 Nordeste 30 Este 0 895.2 -1 76
2020-03-24 14:00:00 9.4 11 Este 31 Este 0 895.8 -0.4 66
2020-03-24 13:00:00 9.1 16 Este 30 Este 0 896 -0.2 71
2020-03-24 12:00:00 8.5 16 Este 34 Este 0 896.2 0 72
2020-03-24 11:00:00 9.2 13 Nordeste 32 Nordeste 0 896.2 0.2 72
2020-03-24 10:00:00 7.7 14 Nordeste 32 Este 0 896.2 0.6 81
2020-03-24 09:00:00 6.9 13 Nordeste 27 Este 0 896.2 0.8 87
2020-03-24 08:00:00 6.1 9 Nordeste 33 Este 0 896 0.4 93
2020-03-24 07:00:00 6.1 12 Este 27 Este 0 895.6 -0.1 88
2020-03-24 06:00:00 6.2 9 Nordeste 22 Nordeste 0 895.4 -0.2 88
2020-03-24 05:00:00 5.9 12 Nordeste 26 Este 0 895.6 -0.3 92
2020-03-24 04:00:00 5.9 14 Este 26 Este 0 895.7 -0.5 89
2020-03-24 03:00:00 6.2 10 Nordeste 23 Nordeste 0 895.6 -0.9 90
2020-03-24 02:00:00 6.7 10 Nordeste 24 Este 0 895.9 -0.5 89
2020-03-24 01:00:00 6.1 6 Nordeste 15 Este 0 896.2 0 96
2020-03-24 00:00:00 5.5 0 Calma 7 Nordeste 0 896.5 0.5 96
2020-03-23 23:00:00 5.9 2 Nordeste 9 Nordeste 0.2 896.4 0.8 93
2020-03-23 22:00:00 6.4 4 Nordeste 12 Este 0 896.2 0.8 96
2020-03-23 21:00:00 6.5 4 Nordeste 12 Nordeste 0 896 1.3 94
2020-03-23 20:00:00 6.7 3 Nordeste 21 Este 1.4 895.6 1.3 91
2020-03-23 19:00:00 8.1 15 Este 22 Este 0.6 895.4 1.2 89
2020-03-23 18:00:00 8.6 4 Este 26 Nordeste 0.8 894.7 0.2 86
2020-03-23 17:00:00 12 8 Nordeste 22 Este 0 894.3 -0.5 75
2020-03-23 16:00:00 11.4 12 Nordeste 30 Este 0.2 894.2 -1.2 76
2020-03-23 15:00:00 10.5 8 Sudeste 35 Sudeste 0.2 894.5 -1.2 77
2020-03-23 14:00:00 11.1 9 Este 22 Este 0 894.8 -0.8 67
2020-03-23 13:00:00 10.2 13 Este 25 Este 0.2 895.4 0 72
2020-03-23 12:00:00 8.6 12 Nordeste 24 Este 0 895.7 0.9 85
2020-03-23 11:00:00 7.9 12 Nordeste 27 Este 0 895.6 1.1 80
2020-03-23 10:00:00 7.2 7 Nordeste 27 Este 0 895.4 1.4 83
2020-03-23 09:00:00 6.9 11 Nordeste 22 Este 0 894.8 1.2 85
2020-03-23 08:00:00 6.1 8 Nordeste 17 Nordeste 0 894.5 1.2 90
2020-03-23 07:00:00 5.8 4 Nordeste 12 Este 0 894 0.7 94
2020-03-23 06:00:00 5.4 3 Nordeste 10 Este 0 893.6 0.1 94
2020-03-23 05:00:00 5 0 Calma 5 Este 0 893.3 -0.2 91
2020-03-23 04:00:00 5.1 2 Este 8 Sudeste 0 893.3 -0.2 91
2020-03-23 03:00:00 5 2 Este 6 Este 0 893.5 -0.1 93
2020-03-23 02:00:00 5.2 2 Este 5 Sudeste 0 893.5 0.1 90
2020-03-23 01:00:00 5.2 2 Sudeste 8 Norte 0 893.5 0.3 93
2020-03-23 00:00:00 4.9 2 Nordeste 5 Este 0 893.6 0.9 88
2020-03-22 23:00:00 7 4 Este 13 Este 0 893.4 1.3 85
2020-03-22 22:00:00 7.3 6 Este 15 Este 0 893.2 1.7 87
2020-03-22 21:00:00 7.4 8 Nordeste 16 Este 0 892.7 1.6 87
2020-03-22 20:00:00 7.8 8 Nordeste 20 Este 0 892.1 1.3 83
2020-03-22 19:00:00 8.3 6 Nordeste 23 Nordeste 0 891.5 0.9 79
2020-03-22 18:00:00 8.9 5 Nordeste 21 Este 0 891.1 0.6 78
2020-03-22 17:00:00 9.1 8 Nordeste 27 Este 0 890.8 0.1 70
2020-03-22 16:00:00 9.9 13 Nordeste 25 Este 0 890.6 -0.5 65
2020-03-22 15:00:00 10.6 7 Sudeste 31 Nordeste 0 890.5 -0.7 63
2020-03-22 14:00:00 11.2 10 Nordeste 25 Este 0 890.7 -0.5 50
2020-03-22 13:00:00 11.7 8 Nordeste 23 Este 0 891.1 0 47
2020-03-22 12:00:00 10 12 Este 26 Este 0 891.2 0.5 60
2020-03-22 11:00:00 8.9 9 Nordeste 18 Este 0 891.2 0.6 72
2020-03-22 10:00:00 7.2 6 Nordeste 12 Este 0 891.1 0.8 89
2020-03-22 09:00:00 6 0 Calma 5 Sudoeste 0.2 890.7 0.5 96
2020-03-22 08:00:00 5.3 0 Calma 4 Noroeste 0.4 890.6 0.5 96
2020-03-22 07:00:00 5.1 2 Noroeste 5 Noroeste 0.2 890.3 0.1 96
2020-03-22 06:00:00 4.9 0 Calma 5 Sudoeste 0.4 890.2 -0.4 95
2020-03-22 05:00:00 4.9 3 Sudoeste 5 Sudoeste 0.8 890.1 -0.9 95
2020-03-22 04:00:00 4.9 2 Norte 8 Noroeste 0.2 890.2 -1 94
2020-03-22 03:00:00 5 3 Noroeste 11 Oeste 0.4 890.6 -0.9 94
2020-03-22 02:00:00 5.3 4 Oeste 13 Oeste 0 891 -0.5 91
2020-03-22 01:00:00 5.7 6 Oeste 13 Oeste 0 891.2 -0.1 89
2020-03-22 00:00:00 6 9 Oeste 14 Oeste 0 891.5 0.5 86
2020-03-21 23:00:00 6.8 3 Oeste 13 Oeste 0 891.5 0.9 91
2020-03-21 22:00:00 7.2 5 Noroeste 12 Oeste 0 891.3 1.1 91
2020-03-21 21:00:00 7.7 6 Oeste 16 Sudoeste 0.2 891 0.9 89
2020-03-21 20:00:00 8.7 4 Noroeste 11 Oeste 0 890.6 0.4 85
2020-03-21 19:00:00 9.5 2 Noroeste 8 Noroeste 0 890.2 -0.2 73
2020-03-21 18:00:00 10 5 Noroeste 10 Noroeste 0 890.1 -0.7 72
2020-03-21 17:00:00 9.9 2 Noroeste 8 Oeste 0 890.2 -1.1 71
2020-03-21 16:00:00 10.1 5 Oeste 11 Noroeste 0 890.4 -1.3 72
2020-03-21 15:00:00 10.5 2 Norte 6 Nordeste 0 890.8 -1.4 68
2020-03-21 14:00:00 9.7 4 Este 8 Nordeste 0 891.3 -1.2 69
2020-03-21 13:00:00 9.3 3 Nordeste 8 Norte 0 891.7 -1.1 73
2020-03-21 12:00:00 8.7 3 Nordeste 6 Nordeste 0 892.2 -0.3 72
2020-03-21 11:00:00 7.6 3 Sudeste 6 Sudeste 0 892.5 0 77
2020-03-21 10:00:00 5.2 2 Oeste 4 Oeste 0 892.8 0.3 92
2020-03-21 09:00:00 2.4 2 Sudeste 5 Sur 0 892.5 0.1 96
2020-03-21 08:00:00 1.1 0 Calma 6 Sudeste 0 892.5 -0.1 96
2020-03-21 07:00:00 1.2 4 Sudeste 5 Sudeste 0 892.5 -0.4 96
2020-03-21 06:00:00 2 2 Este 5 Este 0 892.4 -1.1 95
2020-03-21 05:00:00 2.8 3 Este 10 Este 0 892.6 -1.3 96
2020-03-21 04:00:00 3.8 0 Calma 5 Norte 0 892.9 -1.3 93
2020-03-21 03:00:00 4.3 0 Calma 4 Oeste 0 893.5 -1 94
2020-03-21 02:00:00 3.8 2 Sur 5 Sur 0 893.9 -0.7 97
2020-03-21 01:00:00 3.9 0 Calma 4 Este 0 894.2 -0.3 93
2020-03-21 00:00:00 4.8 2 Este 7 Sudeste 0 894.5 0.2 90
2020-03-20 23:00:00 6 0 Calma 8 Sur 0 894.6 0.6 87
2020-03-20 22:00:00 7.4 4 Sudoeste 12 Sur 0 894.5 0.3 86
2020-03-20 21:00:00 8.5 2 Nordeste 13 Sudeste 0 894.3 0.3 81
2020-03-20 20:00:00 10 8 Este 24 Este 0 894 -0.1 75
2020-03-20 19:00:00 12.2 8 Este 21 Este 0 894.2 -0.2 65
2020-03-20 18:00:00 13.4 5 Nordeste 19 Este 0 894 -1 62
2020-03-20 17:00:00 14.9 9 Nordeste 22 Norte 0 894.1 -1.4 57
2020-03-20 16:00:00 14.9 10 Nordeste 20 Nordeste 0 894.4 -1.6 63
2020-03-20 15:00:00 14.2 4 Noroeste 15 Norte 0 895 -1.5 62
2020-03-20 14:00:00 12.6 5 Sur 12 Sudoeste 0 895.5 -1.1 62
2020-03-20 13:00:00 11.5 6 Oeste 12 Norte 0 896 -0.6 64
2020-03-20 12:00:00 8.8 3 Este 8 Este 0 896.5 0 74
2020-03-20 11:00:00 8 5 Este 10 Este 0 896.6 0.5 78
2020-03-20 10:00:00 7 5 Este 9 Sudeste 0 896.6 0.9 82
2020-03-20 09:00:00 5.6 5 Este 10 Sudeste 0 896.5 0.6 85
2020-03-20 08:00:00 4.8 4 Este 6 Sudeste 0 896.1 0.1 91
2020-03-20 07:00:00 4.5 0 Calma 3 Sur 0 895.7 -0.5 94
2020-03-20 06:00:00 4.2 0 Calma 3 Sudoeste 0 895.9 -0.5 95
2020-03-20 05:00:00 3.6 0 Calma 4 Sudeste 0 896 -0.6 96
2020-03-20 04:00:00 3.1 0 Calma 7 Este 0 896.2 -0.4 94
2020-03-20 03:00:00 3.5 0 Calma 8 Oeste 0 896.4 -0.4 93
2020-03-20 02:00:00 3.7 0 Calma 9 Norte 0 896.6 -0.6 93
2020-03-20 01:00:00 4.6 0 Calma 4 Norte 0 896.6 -0.7 91
2020-03-20 00:00:00 5.4 2 Norte 4 Nordeste 0 896.8 -0.4 90
2020-03-19 23:00:00 6.4 0 Calma 2 Sudeste 0 897.2 0.2 86
2020-03-19 22:00:00 7.8 0 Calma 9 Este 0 897.3 0.7 83
2020-03-19 21:00:00 9.3 4 Este 12 Este 0 897.2 0.8 78
2020-03-19 20:00:00 11.6 6 Este 13 Nordeste 0 897 0.4 66
2020-03-19 19:00:00 13.1 8 Este 27 Este 0 896.6 -0.4 53
2020-03-19 18:00:00 14.4 17 Este 30 Este 0 896.4 -1.3 45
2020-03-19 17:00:00 15.6 18 Este 27 Este 0 896.6 -1.9 41
2020-03-19 16:00:00 17.1 8 Este 17 Sudeste 0 897 -2.4 40
2020-03-19 15:00:00 16.9 5 Este 16 Este 0 897.7 -2.3 33
2020-03-19 14:00:00 16.2 5 Sudeste 12 Este 0 898.5 -2.1 33
2020-03-19 13:00:00 14.8 6 Este 17 Este 0 899.4 -1.5 30
2020-03-19 12:00:00 13.6 10 Este 18 Este 0 900 -0.8 33
2020-03-19 11:00:00 10 2 Sudoeste 8 Sur 0 900.6 0 61
2020-03-19 10:00:00 5.7 2 Sur 8 Oeste 0 900.9 0.2 85
2020-03-19 09:00:00 2.7 0 Calma 6 Oeste 0 900.8 0.1 100
2020-03-19 08:00:00 1.7 2 Este 4 Sudoeste 0 900.6 -0.3 99
2020-03-19 07:00:00 1.2 0 Calma 3 Sur 0 900.7 -0.3 97
2020-03-19 06:00:00 1.7 0 Calma 5 Sudeste 0 900.7 -1 97
2020-03-19 05:00:00 2.4 2 Este 5 Este 0 900.9 -1.3 97
2020-03-19 04:00:00 2.8 3 Este 5 Este 0 901 -1.5 96
2020-03-19 03:00:00 3.3 0 Calma 4 Norte 0 901.7 -1 96
2020-03-19 02:00:00 4 2 Este 6 Este 0 902.2 -0.7 95
2020-03-19 01:00:00 4.9 0 Calma 7 Este 0 902.5 -0.7 93
2020-03-19 00:00:00 6.3 3 Este 5 Este 0 902.7 -0.2 93
2020-03-18 23:00:00 7.6 0 Calma 5 Este 0 902.9 0.2 90
2020-03-18 22:00:00 8.9 2 Nordeste 8 Norte 0 903.2 0.7 87
2020-03-18 21:00:00 9.9 3 Nordeste 19 Norte 0 902.9 0.4 83
2020-03-18 20:00:00 10.7 6 Nordeste 13 Norte 0 902.7 0.1 85
2020-03-18 19:00:00 12.6 4 Nordeste 14 Nordeste 0 902.5 -0.3 73
2020-03-18 18:00:00 13.5 12 Este 19 Este 0 902.5 -0.6 61
2020-03-18 17:00:00 14.1 9 Nordeste 17 Este 0 902.6 -0.9 58
2020-03-18 16:00:00 14.4 10 Este 21 Nordeste 0 902.8 -1.2 60
2020-03-18 15:00:00 15 9 Nordeste 22 Nordeste 0 903.1 -1.5 59
2020-03-18 14:00:00 15.9 8 Nordeste 23 Este 0 903.5 -1.4 60
2020-03-18 13:00:00 15.7 9 Nordeste 23 Norte 0 904 -1.1 65
2020-03-18 12:00:00 14.6 11 Nordeste 23 Nordeste 0 904.6 -0.3 71
2020-03-18 11:00:00 11.7 10 Norte 18 Nordeste 0 904.9 0 78
2020-03-18 10:00:00 9.2 9 Norte 21 Nordeste 0 905.1 0.3 88
2020-03-18 09:00:00 7.1 7 Norte 14 Nordeste 0 904.9 0.1 93
2020-03-18 08:00:00 5 2 Sudeste 13 Nordeste 0 904.9 0.2 95
2020-03-18 07:00:00 5 5 Nordeste 15 Nordeste 0 904.8 0 96
2020-03-18 06:00:00 5.4 8 Nordeste 16 Norte 0 904.8 -0.3 96
2020-03-18 05:00:00 5.3 5 Nordeste 16 Este 0 904.7 -0.8 93
2020-03-18 04:00:00 5.3 7 Nordeste 15 Norte 0 904.8 -1 97
2020-03-18 03:00:00 5.7 4 Nordeste 15 Norte 0 905.1 -0.9 96
2020-03-18 02:00:00 5.8 4 Nordeste 10 Nordeste 0 905.5 -0.7 97
2020-03-18 01:00:00 6.1 4 Nordeste 13 Nordeste 0 905.8 -0.2 96
2020-03-18 00:00:00 6.5 6 Nordeste 14 Nordeste 0 906 0.4 96
2020-03-17 23:00:00 6.9 4 Nordeste 11 Este 0 906.2 1.2 95
2020-03-17 22:00:00 7.7 6 Nordeste 16 Este 0 906 1.5 93
2020-03-17 21:00:00 7.4 6 Nordeste 17 Este 0 905.6 1.4 94
2020-03-17 20:00:00 8.1 8 Nordeste 31 Este 0 905 0.9 90
2020-03-17 19:00:00 8.8 11 Nordeste 24 Nordeste 0 904.5 0.4 88
2020-03-17 18:00:00 9.6 12 Nordeste 24 Nordeste 0 904.2 0.2 91
2020-03-17 17:00:00 9.4 9 Nordeste 23 Este 0.2 904.1 -0.1 94
2020-03-17 16:00:00 9.8 3 Nordeste 18 Este 0.2 904.1 0.2 92
2020-03-17 15:00:00 10.1 10 Este 23 Sudeste 0.6 904 0.1 86
2020-03-17 14:00:00 9.5 12 Este 29 Este 0.4 904.2 0.6 88
2020-03-17 13:00:00 10.3 7 Este 13 Este 0 903.9 1.1 91
2020-03-17 12:00:00 7.1 3 Sudeste 5 Sudeste 0.4 903.9 1.8 97
2020-03-17 11:00:00 5.7 4 Este 8 Este 1 903.6 2.4 98
2020-03-17 10:00:00 5.2 3 Oeste 5 Oeste 1.4 902.8 2.4 98
2020-03-17 09:00:00 4.9 4 Oeste 8 Sudoeste 0.6 902.1 2.2 99
2020-03-17 08:00:00 4.7 0 Calma 7 Sudoeste 1 901.2 1.8 99
2020-03-17 07:00:00 4.8 3 Sudoeste 6 Sur 1.4 900.4 1.6 98
2020-03-17 06:00:00 5 2 Sur 15 Norte 0.8 899.9 1.5 99
2020-03-17 05:00:00 4.5 4 Este 18 Este 4.2 899.4 1 99
2020-03-17 04:00:00 4.8 7 Nordeste 19 Nordeste 0.4 898.8 0.5 99
2020-03-17 03:00:00 4.5 10 Nordeste 19 Este 0.2 898.4 0.7 100
2020-03-17 02:00:00 3 0 Calma 9 Este 0 898.4 1.2 100
2020-03-17 01:00:00 2.8 5 Sudeste 12 Este 0.8 898.3 2 100
2020-03-17 00:00:00 2.3 3 Nordeste 24 Sudeste 0 897.7 1.9 100
2020-03-16 23:00:00 1.6 3 Nordeste 8 Este 0.2 897.2 2.2 99
2020-03-16 22:00:00 1.4 3 Norte 7 Sur 0.2 896.3 1.5 97
2020-03-16 21:00:00 1.3 3 Este 9 Sudeste 1.2 895.8 2 97
2020-03-16 20:00:00 1.1 2 Nordeste 9 Norte 1 895 1.4 97
2020-03-16 19:00:00 1.1 3 Norte 9 Sur 1 894.8 1.6 95
2020-03-16 18:00:00 1.7 2 Noroeste 7 Sur 1.2 893.8 1 92
2020-03-16 17:00:00 1.4 3 Nordeste 8 Nordeste 2.8 893.6 0.9 94
2020-03-16 16:00:00 1.3 3 Sudoeste 5 Sur 2.2 893.2 0 94
2020-03-16 15:00:00 2 2 Este 8 Sudoeste 0.6 892.8 0.4 92
2020-03-16 14:00:00 1.5 3 Sudoeste 6 Sudoeste 1.4 892.7 0.8 95
2020-03-16 13:00:00 1.1 0 Calma 9 Sur 3.6 893.2 1.9 95
2020-03-16 12:00:00 1.4 3 Sur 8 Noroeste 1 892.4 2.6 94
2020-03-16 11:00:00 1.3 4 Oeste 10 Oeste 1.6 891.9 3.2 95
2020-03-16 10:00:00 2 5 Oeste 17 Oeste 5 891.3 2.8 90
2020-03-16 09:00:00 4.3 6 Sudoeste 12 Sudoeste 3 889.8 2 93
2020-03-16 08:00:00 4.9 6 Noroeste 17 Oeste 1.8 888.7 0.7 92
2020-03-16 07:00:00 6.1 9 Oeste 18 Oeste 4.2 888.5 -0.4 91
2020-03-16 06:00:00 7.2 4 Este 21 Este 2 887.8 -2 93
2020-03-16 05:00:00 7 7 Este 11 Este 0.2 888 -2.3 94
2020-03-16 04:00:00 7.1 6 Sudeste 22 Sur 2 888.9 -2.4 89
2020-03-16 03:00:00 7.1 10 Sudeste 21 Sudeste 1 889.8 -2.1 91
2020-03-16 02:00:00 6.9 9 Este 17 Sudeste 0.2 890.3 -2.6 91
2020-03-16 01:00:00 6.6 7 Sudeste 12 Este 1.6 891.3 0.1 95
2020-03-16 00:00:00 6.6 5 Este 13 Oeste 1.2 891.9 0.8 93
2020-03-15 23:00:00 6.8 9 Oeste 44 Oeste 1.6 892.9 2.1 91
2020-03-15 22:00:00 9.2 10 Sur 26 Sur 0.8 891.2 -0.1 75
2020-03-15 21:00:00 9.2 3 Este 8 Este 0 891.1 -0.3 72
2020-03-15 20:00:00 10.5 4 Este 35 Sur 0 890.8 -1.5 66
2020-03-15 19:00:00 11.4 14 Sudeste 42 Sur 0 891.3 -0.9 61
2020-03-15 18:00:00 12.2 12 Sudoeste 39 Sudoeste 0 891.4 -1 59
2020-03-15 17:00:00 13.8 14 Sudoeste 31 Sur 0 892.3 -0.8 67
2020-03-15 16:00:00 14.2 10 Sudoeste 24 Sudoeste 0 892.2 -2.1 66
2020-03-15 15:00:00 15.5 13 Sudoeste 29 Oeste 0 892.4 -2.5 56
2020-03-15 14:00:00 16.9 16 Sudoeste 30 Sudoeste 0 893.1 -2 54
2020-03-15 13:00:00 14.6 6 Sudoeste 26 Oeste 0.4 894.3 -1.5 77
2020-03-15 12:00:00 16.2 12 Sudoeste 27 Sur 0 894.9 -1.2 53
2020-03-15 11:00:00 15.3 5 Oeste 10 Oeste 0 895.1 -1.1 57
2020-03-15 10:00:00 8.8 0 Calma 5 Sudoeste 0 895.8 -0.4 71
2020-03-15 09:00:00 3.5 2 Sur 5 Este 0 896.1 -0.2 76
2020-03-15 08:00:00 0.5 3 Este 6 Sur 0 896.2 -0.3 85
2020-03-15 07:00:00 0 0 Calma 4 Sudeste 0 896.2 -0.6 84
2020-03-15 06:00:00 0.4 0 Calma 4 Sudeste 0 896.3 -1.3 83
2020-03-15 05:00:00 1 2 Este 7 Sudeste 0 896.5 -1.6 79
2020-03-15 04:00:00 1.9 2 Este 6 Este 0 896.8 -1.6 77
2020-03-15 03:00:00 2.3 0 Calma 4 Sur 0 897.6 -1 75
2020-03-15 02:00:00 2.8 0 Calma 4 Este 0 898.1 -0.7 71
2020-03-15 01:00:00 3.1 2 Este 3 Nordeste 0 898.4 -0.4 69
2020-03-15 00:00:00 3.8 2 Sudeste 4 Este 0 898.6 -0.1 64
2020-03-14 23:00:00 4.8 0 Calma 6 Sudeste 0 898.8 0.5 58
2020-03-14 22:00:00 6.6 3 Sudeste 8 Este 0 898.8 0.6 52
2020-03-14 21:00:00 8.4 3 Nordeste 6 Norte 0 898.7 1.1 46
2020-03-14 20:00:00 10.7 0 Calma 9 Este 0 898.3 1.1 42
2020-03-14 19:00:00 14.7 6 Nordeste 17 Este 0 898.2 0.6 33
2020-03-14 18:00:00 18.5 9 Nordeste 19 Norte 0 897.6 -0.3 28
2020-03-14 17:00:00 20 6 Nordeste 17 Este 0 897.2 -1.6 23
2020-03-14 16:00:00 20.1 8 Nordeste 17 Nordeste 0 897.6 -1.9 28
2020-03-14 15:00:00 19.1 6 Norte 17 Norte 0 897.9 -1.9 29
2020-03-14 14:00:00 18.1 6 Norte 14 Nordeste 0 898.8 -1.3 31
2020-03-14 13:00:00 17.1 5 Norte 19 Nordeste 0 899.5 -0.6 33
2020-03-14 12:00:00 16.2 8 Norte 17 Nordeste 0 899.8 0 41
2020-03-14 11:00:00 13.8 6 Nordeste 17 Este 0 900.1 0.6 51
2020-03-14 10:00:00 8.9 3 Sudoeste 5 Sudoeste 0 900.1 0.9 79
2020-03-14 09:00:00 5.3 3 Sur 6 Este 0 899.8 1 90
2020-03-14 08:00:00 2.8 3 Sudeste 6 Sudeste 0 899.5 1 93
2020-03-14 07:00:00 2.8 3 Sudoeste 8 Sudeste 0 899.2 0.9 96
2020-03-14 06:00:00 2.2 3 Nordeste 8 Este 0 898.8 -0.1 93
2020-03-14 05:00:00 2.4 4 Sur 8 Sur 0 898.5 -0.6 93
2020-03-14 04:00:00 3 4 Este 9 Este 0 898.3 -0.6 93
2020-03-14 03:00:00 3.6 0 Calma 8 Sur 0 898.9 -0.1 90
2020-03-14 02:00:00 3.7 0 Calma 5 Norte 0 899.1 0 91
2020-03-14 01:00:00 4.2 2 Nordeste 8 Este 0 898.9 0.2 90
2020-03-14 00:00:00 5 2 Nordeste 6 Sudeste 0 899 0.6 87
2020-03-13 23:00:00 6.5 2 Sudeste 15 Este 0 899.1 1.2 82
2020-03-13 22:00:00 7.8 6 Este 13 Sudeste 0 898.7 1.4 79
2020-03-13 21:00:00 9.1 4 Este 9 Este 0 898.4 1.8 75
2020-03-13 20:00:00 10.6 6 Nordeste 16 Este 0 897.9 1.7 71
2020-03-13 19:00:00 12.6 7 Nordeste 18 Este 0 897.3 1 64
2020-03-13 18:00:00 15.8 8 Nordeste 24 Norte 0 896.6 -0.2 55
2020-03-13 17:00:00 18.6 8 Nordeste 22 Nordeste 0 896.2 -1.1 53
2020-03-13 16:00:00 19 9 Este 23 Norte 0 896.3 -1.7 49
2020-03-13 15:00:00 19.4 9 Norte 23 Nordeste 0 896.8 -1.5 52
2020-03-13 14:00:00 19.5 13 Norte 24 Norte 0 897.3 -1.2 53
2020-03-13 13:00:00 17.7 11 Norte 27 Norte 0 898 -0.6 56
2020-03-13 12:00:00 16.8 12 Norte 25 Norte 0 898.3 -0.3 57
2020-03-13 11:00:00 14.6 7 Sudeste 15 Sudeste 0 898.5 0.2 59
2020-03-13 10:00:00 11.8 3 Sudoeste 6 Sur 0 898.6 0.6 72
2020-03-13 09:00:00 8.3 2 Este 5 Sur 0 898.6 0.6 88
2020-03-13 08:00:00 6.2 0 Calma 6 Sudeste 0 898.3 0.5 92
2020-03-13 07:00:00 6.4 2 Sudeste 5 Sudeste 0 898 0.2 90
2020-03-13 06:00:00 6.9 2 Este 6 Nordeste 0 898 0 89
2020-03-13 05:00:00 8 4 Este 14 Norte 0 897.8 -0.3 88
2020-03-13 04:00:00 8.9 11 Norte 27 Norte 0 897.8 -0.6 88
2020-03-13 03:00:00 8.5 2 Sudoeste 6 Sur 0 898 -0.6 89
2020-03-13 02:00:00 7.6 0 Calma 5 Sudeste 0 898.1 -0.3 84
2020-03-13 01:00:00 7.6 0 Calma 6 Sudeste 0 898.4 0.2 81
2020-03-13 00:00:00 9 2 Este 5 Este 0 898.6 0.6 77
2020-03-12 23:00:00 10.9 3 Este 6 Este 0 898.4 0.7 70
2020-03-12 22:00:00 12.4 3 Sur 8 Este 0 898.2 0.8 65
2020-03-12 21:00:00 13.9 3 Este 6 Sudeste 0 898 0.7 61
2020-03-12 20:00:00 17.1 0 Calma 10 Oeste 0 897.7 0.5 50
2020-03-12 19:00:00 19.7 7 Oeste 16 Sudoeste 0 897.4 -0.2 43
2020-03-12 18:00:00 21.9 10 Oeste 23 Sudoeste 0 897.3 -1 35
2020-03-12 17:00:00 23.7 11 Sudoeste 29 Oeste 0 897.2 -2.1 30
2020-03-12 16:00:00 24 14 Sudoeste 28 Oeste 0 897.6 -2.6 30
2020-03-12 15:00:00 23.7 14 Oeste 25 Sudoeste 0 898.3 -2.5 27
2020-03-12 14:00:00 23.8 10 Sudoeste 25 Sur 0 899.3 -2 25
2020-03-12 13:00:00 22.9 7 Oeste 13 Oeste 0 900.2 -1.5 36
2020-03-12 12:00:00 18.9 3 Sudoeste 6 Sudoeste 0 900.8 -1 43
2020-03-12 11:00:00 14.6 2 Sudeste 5 Sudeste 0 901.3 -0.2 58
2020-03-12 10:00:00 9 2 Sur 4 Sudoeste 0 901.7 0.3 81
2020-03-12 09:00:00 4.4 2 Sur 4 Sur 0 901.8 0.3 91
2020-03-12 08:00:00 1.3 0 Calma 3 Este 0 901.5 -0.3 95
2020-03-12 07:00:00 1.5 0 Calma 4 Este 0 901.4 -0.8 92
2020-03-12 06:00:00 2.2 2 Nordeste 4 Norte 0 901.5 -1.1 93
2020-03-12 05:00:00 2.6 2 Este 4 Este 0 901.8 -1.1 92
2020-03-12 04:00:00 3.3 2 Este 4 Este 0 902.2 -0.9 90
2020-03-12 03:00:00 4.2 0 Calma 4 Sudeste 0 902.6 -0.8 87
2020-03-12 02:00:00 5.1 0 Calma 6 Sudeste 0 902.9 -0.5 86
2020-03-12 01:00:00 6 0 Calma 3 Este 0 903.1 -0.2 84
2020-03-12 00:00:00 7.2 2 Este 4 Sudeste 0 903.4 0.5 81
2020-03-11 23:00:00 8.6 0 Calma 5 Sudeste 0 903.4 0.6 77
2020-03-11 22:00:00 10.4 3 Sudeste 5 Este 0 903.3 0.8 71
2020-03-11 21:00:00 12.2 3 Este 5 Este 0 902.9 0.9 65
2020-03-11 20:00:00 15.3 3 Sudeste 5 Este 0 902.8 0.8 55
2020-03-11 19:00:00 18.8 0 Calma 9 Oeste 0 902.5 0.3 45
2020-03-11 18:00:00 21.4 6 Oeste 19 Oeste 0 902 -0.6 38
2020-03-11 17:00:00 22.7 9 Oeste 23 Oeste 0 902 -1 32
2020-03-11 16:00:00 23.5 9 Sudoeste 27 Oeste 0 902.2 -1.7 31
2020-03-11 15:00:00 23.8 11 Oeste 23 Oeste 0 902.6 -2 30
2020-03-11 14:00:00 23.1 9 Oeste 20 Sudoeste 0 903 -1.9 32
2020-03-11 13:00:00 21.5 6 Sudoeste 20 Sudoeste 0 903.9 -1.3 38
2020-03-11 12:00:00 18.3 2 Sudoeste 5 Noroeste 0 904.6 -0.3 46
2020-03-11 11:00:00 12.9 2 Oeste 5 Oeste 0 904.9 0.2 61
2020-03-11 10:00:00 8 2 Sudoeste 4 Oeste 0 905.2 0.7 80
2020-03-11 09:00:00 3.5 2 Este 5 Este 0 904.9 0.5 92
2020-03-11 08:00:00 0 2 Este 5 Sudeste 0 904.7 0.4 95
2020-03-11 07:00:00 0.1 0 Calma 4 Sudeste 0 904.5 -0.1 92
2020-03-11 06:00:00 0.7 0 Calma 3 Este 0 904.4 -0.4 92
2020-03-11 05:00:00 1.3 0 Calma 3 Este 0 904.3 -0.7 92
2020-03-11 04:00:00 1.9 2 Sur 5 Nordeste 0 904.6 -0.5 92
2020-03-11 03:00:00 2.4 2 Este 5 Sudeste 0 904.8 -0.4 90
2020-03-11 02:00:00 3.3 2 Este 5 Este 0 905 -0.4 88
2020-03-11 01:00:00 4.1 3 Este 5 Sudeste 0 905.1 0.1 85
2020-03-11 00:00:00 5.2 0 Calma 6 Sudeste 0 905.2 0.6 82
2020-03-10 23:00:00 6.7 2 Este 8 Este 0 905.4 1 79
2020-03-10 22:00:00 8.6 4 Este 7 Sudeste 0 905 1.1 72
2020-03-10 21:00:00 11.6 3 Este 8 Oeste 0 904.6 0.9 61
2020-03-10 20:00:00 14.3 3 Sudoeste 14 Oeste 0 904.4 0.7 53
2020-03-10 19:00:00 16.9 8 Oeste 20 Oeste 0 903.9 0 45
2020-03-10 18:00:00 18.7 10 Oeste 22 Sudoeste 0 903.7 -0.4 40
2020-03-10 17:00:00 19.5 11 Oeste 25 Oeste 0 903.7 -0.6 40
2020-03-10 16:00:00 20.4 12 Oeste 22 Oeste 0 903.9 -1.2 37
2020-03-10 15:00:00 20.5 8 Sudoeste 17 Sudoeste 0 904.1 -1.2 41
2020-03-10 14:00:00 19.9 8 Sudoeste 17 Oeste 0 904.3 -1.3 40
2020-03-10 13:00:00 18.2 9 Sudoeste 17 Sur 0 905.1 -0.6 39
2020-03-10 12:00:00 15.7 6 Sudoeste 13 Oeste 0 905.3 -0.2 43
2020-03-10 11:00:00 12 3 Oeste 6 Oeste 0 905.6 0.5 57
2020-03-10 10:00:00 6.4 0 Calma 3 Sudoeste 0 905.7 0.8 73
2020-03-10 09:00:00 2.5 2 Este 5 Este 0 905.5 0.8 86
2020-03-10 08:00:00 -0.2 2 Este 3 Nordeste 0 905.1 0.8 93
2020-03-10 07:00:00 -0.7 3 Nordeste 4 Este 0 904.9 0.8 91
2020-03-10 06:00:00 -0.9 2 Este 5 Sudeste 0 904.7 0.4 90
2020-03-10 05:00:00 -0.8 0 Calma 4 Sur 0 904.3 0 88
2020-03-10 04:00:00 -0.5 3 Este 6 Este 0 904.1 -0.1 86
2020-03-10 03:00:00 -0.3 2 Este 5 Este 0 904.3 0 84
2020-03-10 02:00:00 0.5 3 Este 9 Este 0 904.3 -0.1 78
2020-03-10 01:00:00 1.4 3 Nordeste 9 Este 0 904.2 0.1 76
2020-03-10 00:00:00 2.6 3 Este 6 Sudeste 0 904.3 0.4 71
2020-03-09 23:00:00 5.1 2 Este 14 Noroeste 0 904.4 1.1 59
2020-03-09 22:00:00 6.7 4 Noroeste 17 Norte 0 904.1 1.5 51
2020-03-09 21:00:00 7.9 6 Norte 23 Oeste 0 903.9 1.7 47
2020-03-09 20:00:00 9.7 9 Noroeste 19 Norte 0 903.3 1.4 44
2020-03-09 19:00:00 10.9 11 Noroeste 26 Oeste 0 902.6 0.7 48
2020-03-09 18:00:00 11.4 12 Noroeste 26 Noroeste 0 902.2 0 50
2020-03-09 17:00:00 13.2 14 Noroeste 34 Noroeste 0 901.9 -0.9 45
2020-03-09 16:00:00 13.2 12 Noroeste 37 Oeste 0 901.9 -1.5 45
2020-03-09 15:00:00 13.2 12 Noroeste 30 Noroeste 0 902.2 -1.9 43
2020-03-09 14:00:00 12.6 16 Noroeste 34 Noroeste 0 902.8 -1.5 43
2020-03-09 13:00:00 12.1 14 Noroeste 34 Noroeste 0 903.4 -0.5 45
2020-03-09 12:00:00 10.3 13 Noroeste 28 Norte 0 904.1 0.8 53
2020-03-09 11:00:00 7.7 10 Oeste 22 Oeste 0 904.3 1.2 68
2020-03-09 10:00:00 5.8 7 Noroeste 21 Norte 0 903.9 0.8 79
2020-03-09 09:00:00 5.2 8 Oeste 17 Noroeste 0 903.3 0.8 81
2020-03-09 08:00:00 4.6 7 Oeste 17 Oeste 0 903.1 0.7 82
2020-03-09 07:00:00 4.4 4 Noroeste 19 Oeste 0 903.1 1.3 81
2020-03-09 06:00:00 4.7 6 Sudoeste 19 Sudoeste 0 902.5 0.1 79
2020-03-09 05:00:00 6 9 Oeste 25 Oeste 0 902.4 -0.1 77
2020-03-09 04:00:00 3.5 3 Oeste 11 Sur 0 901.8 -0.6 91
2020-03-09 03:00:00 1.8 3 Este 9 Sudeste 0 902.4 -0.5 89
2020-03-09 02:00:00 2.1 2 Nordeste 9 Sudeste 0 902.5 0.1 87
2020-03-09 01:00:00 2 2 Sudeste 5 Este 0 902.4 0.3 81
2020-03-09 00:00:00 2.7 0 Calma 8 Sudeste 0 902.9 0.9 78